createdAt,value
2023-04-30T00:01:25.924Z,1.76
2023-04-30T00:03:52.463Z,1.71
2023-04-30T00:06:21.994Z,1.80
2023-04-30T00:08:50.855Z,1.96
2023-04-30T00:11:17.205Z,1.72
2023-04-30T00:13:43.558Z,1.50
2023-04-30T00:16:10.036Z,1.70
2023-04-30T00:18:36.426Z,1.85
2023-04-30T00:21:02.887Z,1.73
2023-04-30T00:23:29.255Z,1.70
2023-04-30T00:25:55.645Z,1.74
2023-04-30T00:28:22.491Z,1.81
2023-04-30T00:30:48.931Z,1.77
2023-04-30T00:33:15.327Z,1.83
2023-04-30T00:35:41.867Z,1.82
2023-04-30T00:38:08.883Z,1.81
2023-04-30T00:40:35.381Z,1.71
2023-04-30T00:43:01.796Z,1.72
2023-04-30T00:45:28.190Z,1.76
2023-04-30T00:47:54.680Z,2.10
2023-04-30T00:50:21.140Z,2.04
2023-04-30T00:52:47.556Z,2.05
2023-04-30T00:55:13.969Z,2.07
2023-04-30T00:57:40.328Z,2.32
2023-04-30T01:00:06.686Z,2.34
2023-04-30T01:02:33.238Z,2.47
2023-04-30T01:04:59.684Z,2.01
2023-04-30T01:07:26.133Z,2.12
2023-04-30T01:09:52.833Z,2.28
2023-04-30T01:12:19.439Z,2.27
2023-04-30T01:14:45.893Z,2.34
2023-04-30T01:17:15.305Z,2.06
2023-04-30T01:19:42.135Z,2.17
2023-04-30T01:22:08.510Z,2.18
2023-04-30T01:24:38.764Z,2.39
2023-04-30T01:27:05.269Z,2.26
2023-04-30T01:29:31.650Z,2.36
2023-04-30T01:31:58.013Z,2.35
2023-04-30T01:34:24.356Z,2.20
2023-04-30T01:36:50.820Z,2.14
2023-04-30T01:39:17.231Z,1.93
2023-04-30T01:41:43.705Z,1.95
2023-04-30T01:44:10.215Z,1.90
2023-04-30T01:46:36.772Z,1.91
2023-04-30T01:49:03.344Z,1.85
2023-04-30T01:51:29.820Z,1.90
2023-04-30T01:53:56.364Z,1.70
2023-04-30T01:56:27.849Z,1.79
2023-04-30T01:58:54.348Z,1.83
2023-04-30T02:01:20.830Z,1.72
2023-04-30T02:03:47.356Z,1.85
2023-04-30T02:06:13.879Z,1.90
2023-04-30T02:08:40.312Z,1.80
2023-04-30T02:11:06.747Z,1.82
2023-04-30T02:13:33.155Z,1.99
2023-04-30T02:15:59.600Z,2.02
2023-04-30T02:18:25.993Z,1.81
2023-04-30T02:20:52.403Z,1.87
2023-04-30T02:23:18.818Z,1.92
2023-04-30T02:28:35.506Z,1.93
2023-04-30T02:31:01.879Z,1.94
2023-04-30T02:36:20.648Z,1.86
2023-04-30T02:38:47.195Z,1.89
2023-04-30T02:41:13.609Z,1.90
2023-04-30T02:43:40.072Z,1.90
2023-04-30T02:46:06.697Z,2.26
2023-04-30T02:48:33.173Z,2.37
2023-04-30T02:50:59.539Z,2.33
2023-04-30T02:53:25.994Z,2.59
2023-04-30T02:55:52.390Z,2.63
2023-04-30T02:58:18.853Z,2.63
2023-04-30T03:00:45.252Z,2.72
2023-04-30T03:03:11.817Z,2.92
2023-04-30T03:05:38.440Z,2.51
2023-04-30T03:08:04.816Z,2.69
2023-04-30T03:10:31.256Z,2.68
2023-04-30T03:13:06.985Z,2.69
2023-04-30T03:15:33.419Z,2.68
2023-04-30T03:17:59.953Z,2.58
2023-04-30T03:20:26.390Z,2.72
2023-04-30T03:22:53.782Z,3.84
2023-04-30T03:25:20.260Z,4.21
2023-04-30T03:27:46.701Z,2.93
2023-04-30T03:30:14.235Z,3.04
2023-04-30T03:32:40.782Z,2.64
2023-04-30T03:35:07.215Z,2.74
2023-04-30T03:37:33.585Z,2.50
2023-04-30T03:40:00.007Z,2.55
2023-04-30T03:42:26.521Z,2.54
2023-04-30T03:44:52.981Z,2.59
2023-04-30T03:47:19.474Z,2.64
2023-04-30T03:49:45.890Z,2.49
2023-04-30T03:52:12.270Z,2.46
2023-04-30T03:54:39.632Z,2.58
2023-04-30T03:57:05.999Z,2.41
2023-04-30T03:59:32.429Z,2.46
2023-04-30T04:01:58.885Z,2.44
2023-04-30T04:04:25.387Z,2.42
2023-04-30T04:06:54.015Z,2.31
2023-04-30T04:09:20.482Z,2.24
2023-04-30T04:11:46.868Z,2.50
2023-04-30T04:14:13.326Z,2.50
2023-04-30T04:16:39.782Z,2.60
2023-04-30T04:19:06.292Z,2.74
2023-04-30T04:21:32.691Z,2.74
2023-04-30T04:23:59.086Z,3.05
2023-04-30T04:26:25.536Z,3.48
2023-04-30T04:28:51.992Z,3.67
2023-04-30T04:31:18.480Z,3.46
2023-04-30T04:33:44.927Z,3.40
2023-04-30T04:36:11.308Z,3.18
2023-04-30T04:38:37.742Z,3.48
2023-04-30T04:41:04.230Z,3.77
2023-04-30T04:43:30.666Z,5.18
2023-04-30T04:45:57.036Z,5.56
2023-04-30T04:48:23.410Z,4.37
2023-04-30T04:50:49.779Z,4.10
2023-04-30T04:53:17.022Z,4.53
2023-04-30T04:55:46.668Z,4.25
2023-04-30T04:58:13.120Z,4.33
2023-04-30T05:00:40.685Z,3.87
2023-04-30T05:03:07.206Z,8.49
2023-04-30T05:05:42.795Z,7.30
2023-04-30T05:08:09.296Z,6.53
2023-04-30T05:10:35.816Z,6.25
2023-04-30T05:13:02.355Z,5.44
2023-04-30T05:15:28.959Z,4.48
2023-04-30T05:17:55.445Z,3.58
2023-04-30T05:20:21.957Z,3.46
2023-04-30T05:22:48.400Z,3.40
2023-04-30T05:25:14.819Z,3.39
2023-04-30T05:27:41.253Z,3.66
2023-04-30T05:30:07.623Z,3.81
2023-04-30T05:32:34.114Z,4.09
2023-04-30T05:35:00.527Z,4.41
2023-04-30T05:37:26.929Z,5.12
2023-04-30T05:39:54.775Z,4.84
2023-04-30T05:42:26.113Z,4.54
2023-04-30T05:44:53.456Z,4.64
2023-04-30T05:47:30.817Z,4.86
2023-04-30T05:50:04.385Z,4.38
2023-04-30T05:52:33.790Z,4.24
2023-04-30T05:55:00.240Z,4.43
2023-04-30T05:57:29.307Z,5.26
2023-04-30T05:59:55.981Z,5.37
2023-04-30T06:02:22.673Z,6.04
2023-04-30T06:04:49.123Z,8.17
2023-04-30T06:07:19.610Z,5.68
2023-04-30T06:09:47.024Z,5.15
2023-04-30T06:12:13.381Z,4.76
2023-04-30T06:14:39.798Z,5.60
2023-04-30T06:17:06.144Z,5.76
2023-04-30T06:22:23.524Z,4.35
2023-04-30T06:25:10.885Z,5.85
2023-04-30T06:27:45.520Z,6.09
2023-04-30T06:30:11.877Z,4.77
2023-04-30T06:32:38.304Z,4.76
2023-04-30T06:35:08.412Z,4.63
2023-04-30T06:37:34.926Z,7.94
2023-04-30T06:40:01.296Z,7.34
2023-04-30T06:42:27.753Z,6.43
2023-04-30T06:44:54.135Z,4.80
2023-04-30T06:47:25.421Z,7.02
2023-04-30T06:49:51.821Z,8.01
2023-04-30T06:52:18.280Z,5.58
2023-04-30T06:54:44.738Z,5.94
2023-04-30T06:57:11.122Z,5.87
2023-04-30T06:59:38.742Z,6.12
2023-04-30T07:02:05.173Z,6.60
2023-04-30T07:04:31.565Z,6.83
2023-04-30T07:06:58.028Z,7.25
2023-04-30T07:09:24.458Z,7.38
2023-04-30T07:11:52.170Z,7.00
2023-04-30T07:14:18.624Z,7.23
2023-04-30T07:16:45.060Z,6.96
2023-04-30T07:19:11.592Z,7.11
2023-04-30T07:21:37.979Z,6.68
2023-04-30T07:24:04.420Z,7.26
2023-04-30T07:26:30.928Z,7.51
2023-04-30T07:28:57.486Z,7.03
2023-04-30T07:31:23.855Z,7.25
2023-04-30T07:33:50.329Z,6.96
2023-04-30T07:36:16.802Z,7.07
2023-04-30T07:38:43.270Z,7.06
2023-04-30T07:41:14.630Z,6.57
2023-04-30T07:43:41.039Z,6.78
2023-04-30T07:46:07.459Z,7.01
2023-04-30T07:48:34.066Z,7.06
2023-04-30T07:51:00.484Z,7.05
2023-04-30T07:53:26.938Z,6.84
2023-04-30T07:55:53.404Z,6.28
2023-04-30T07:58:19.858Z,6.42
2023-04-30T08:00:46.333Z,6.30
2023-04-30T08:03:12.986Z,6.43
2023-04-30T08:05:39.453Z,7.12
2023-04-30T08:08:05.943Z,7.21
2023-04-30T08:10:32.437Z,7.29
2023-04-30T08:12:58.903Z,7.26
2023-04-30T08:15:25.365Z,7.58
2023-04-30T08:17:51.862Z,7.20
2023-04-30T08:20:18.397Z,7.35
2023-04-30T08:22:44.873Z,7.06
2023-04-30T08:25:11.280Z,6.76
2023-04-30T08:27:37.685Z,6.64
2023-04-30T08:30:04.206Z,6.74
2023-04-30T08:32:30.702Z,6.68
2023-04-30T08:34:57.225Z,6.64
2023-04-30T08:37:23.789Z,7.09
2023-04-30T08:39:50.257Z,6.83
2023-04-30T08:42:16.721Z,7.16
2023-04-30T08:44:43.151Z,7.21
2023-04-30T08:47:09.549Z,6.82
2023-04-30T08:49:35.979Z,7.07
2023-04-30T08:52:02.455Z,6.95
2023-04-30T08:54:28.896Z,7.00
2023-04-30T08:56:55.326Z,6.93
2023-04-30T08:59:21.758Z,7.61
2023-04-30T09:01:48.222Z,7.50
2023-04-30T09:04:14.737Z,7.45
2023-04-30T09:06:41.404Z,7.76
2023-04-30T09:09:08.014Z,7.23
2023-04-30T09:11:34.395Z,7.57
2023-04-30T09:14:00.840Z,7.89
2023-04-30T09:16:27.437Z,7.96
2023-04-30T09:18:54.012Z,7.96
2023-04-30T09:21:20.496Z,8.23
2023-04-30T09:23:47.005Z,8.28
2023-04-30T09:26:14.677Z,8.26
2023-04-30T09:28:41.128Z,8.25
2023-04-30T09:31:07.604Z,8.33
2023-04-30T09:33:34.057Z,8.36
2023-04-30T09:36:00.520Z,8.73
2023-04-30T09:41:07.381Z,8.56
2023-04-30T09:43:33.904Z,8.40
2023-04-30T09:46:00.666Z,8.12
2023-04-30T09:48:27.236Z,8.51
2023-04-30T09:50:53.727Z,8.04
2023-04-30T09:53:20.159Z,8.22
2023-04-30T09:55:46.594Z,8.43
2023-04-30T09:58:13.014Z,8.11
2023-04-30T10:00:39.606Z,7.97
2023-04-30T10:03:06.138Z,7.68
2023-04-30T10:05:32.585Z,8.19
2023-04-30T10:07:59.001Z,8.16
2023-04-30T10:10:25.421Z,7.75
2023-04-30T10:12:51.841Z,7.98
2023-04-30T10:15:19.530Z,8.92
2023-04-30T10:17:46.001Z,11.09
2023-04-30T10:20:12.469Z,9.00
2023-04-30T10:22:38.893Z,8.38
2023-04-30T10:25:05.378Z,8.17
2023-04-30T10:27:31.829Z,8.16
2023-04-30T10:29:58.386Z,8.23
2023-04-30T10:32:24.907Z,8.02
2023-04-30T10:34:51.524Z,8.18
2023-04-30T10:37:17.933Z,8.46
2023-04-30T10:39:44.334Z,8.48
2023-04-30T10:42:10.794Z,7.92
2023-04-30T10:44:37.169Z,7.42
2023-04-30T10:47:03.542Z,7.64
2023-04-30T10:49:30.041Z,7.79
2023-04-30T10:51:56.562Z,8.53
2023-04-30T10:54:23.010Z,9.25
2023-04-30T10:56:49.513Z,8.55
2023-04-30T10:59:15.967Z,8.76
2023-04-30T11:01:42.501Z,8.68
2023-04-30T11:04:09.030Z,8.02
2023-04-30T11:06:35.500Z,8.18
2023-04-30T11:09:02.046Z,8.09
2023-04-30T11:11:28.519Z,8.22
2023-04-30T11:13:55.091Z,8.11
2023-04-30T11:16:21.613Z,10.86
2023-04-30T11:18:48.093Z,10.75
2023-04-30T11:21:14.626Z,8.56
2023-04-30T11:23:42.289Z,8.67
2023-04-30T11:26:08.938Z,8.54
2023-04-30T11:28:35.323Z,8.89
2023-04-30T11:31:01.774Z,9.02
2023-04-30T11:33:28.386Z,7.85
2023-04-30T11:35:54.871Z,8.45
2023-04-30T11:38:21.334Z,8.31
2023-04-30T11:40:47.915Z,8.96
2023-04-30T11:43:14.493Z,8.49
2023-04-30T11:45:40.930Z,8.62
2023-04-30T11:48:07.535Z,8.14
2023-04-30T11:50:34.095Z,8.43
2023-04-30T11:53:01.545Z,8.60
2023-04-30T11:55:28.217Z,8.67
2023-04-30T11:57:54.823Z,8.47
2023-04-30T12:00:21.316Z,8.10
2023-04-30T12:02:48.375Z,7.98
2023-04-30T12:08:04.615Z,8.39
2023-04-30T12:10:31.274Z,8.02
2023-04-30T12:12:57.746Z,8.27
2023-04-30T12:15:24.301Z,7.78
2023-04-30T12:17:50.810Z,8.04
2023-04-30T12:20:17.437Z,8.00
2023-04-30T12:25:24.131Z,9.27
2023-04-30T12:27:50.694Z,9.21
2023-04-30T12:30:17.167Z,9.39
2023-04-30T12:35:24.978Z,9.59
2023-04-30T12:37:51.466Z,8.68
2023-04-30T12:40:17.967Z,8.09
2023-04-30T12:42:50.550Z,9.29
2023-04-30T12:45:17.006Z,8.63
2023-04-30T12:47:43.504Z,8.67
2023-04-30T12:50:24.503Z,8.36
2023-04-30T12:52:51.011Z,8.54
2023-04-30T12:55:17.478Z,8.64
2023-04-30T12:57:44.171Z,8.21
2023-04-30T13:00:11.136Z,8.20
2023-04-30T13:02:37.631Z,8.66
2023-04-30T13:05:04.162Z,8.48
2023-04-30T13:07:30.591Z,8.10
2023-04-30T13:09:57.183Z,8.14
2023-04-30T13:12:23.764Z,9.05
2023-04-30T13:14:50.280Z,16.26
2023-04-30T13:19:57.182Z,8.28
2023-04-30T13:22:23.913Z,8.34
2023-04-30T13:24:50.366Z,8.53
2023-04-30T13:27:16.821Z,9.52
2023-04-30T13:29:43.231Z,9.01
2023-04-30T13:32:09.686Z,8.50
2023-04-30T13:34:36.074Z,8.01
2023-04-30T13:37:02.493Z,8.24
2023-04-30T13:39:28.967Z,8.31
2023-04-30T13:41:55.522Z,9.35
2023-04-30T13:44:22.030Z,8.21
2023-04-30T13:46:48.558Z,8.33
2023-04-30T13:49:15.207Z,7.86
2023-04-30T13:51:41.698Z,7.35
2023-04-30T13:54:08.145Z,7.12
2023-04-30T13:56:34.653Z,9.09
2023-04-30T13:59:01.100Z,8.80
2023-04-30T14:01:27.662Z,8.78
2023-04-30T14:03:54.223Z,7.78
2023-04-30T14:06:20.854Z,7.51
2023-04-30T14:08:47.417Z,7.58
2023-04-30T14:11:15.168Z,7.50
2023-04-30T14:13:41.589Z,7.32
2023-04-30T14:16:08.119Z,7.56
2023-04-30T14:18:34.584Z,7.55
2023-04-30T14:21:01.096Z,7.13
2023-04-30T14:23:27.540Z,7.11
2023-04-30T14:25:53.975Z,7.22
2023-04-30T14:28:20.479Z,7.28
2023-04-30T14:30:46.943Z,7.34
2023-04-30T14:33:13.402Z,6.93
2023-04-30T14:35:39.872Z,6.55
2023-04-30T14:38:06.278Z,7.11
2023-04-30T14:40:32.757Z,7.32
2023-04-30T14:42:59.311Z,6.69
2023-04-30T14:45:25.874Z,6.26
2023-04-30T14:47:54.765Z,5.89
2023-04-30T14:50:23.275Z,6.20
2023-04-30T14:52:51.803Z,5.97
2023-04-30T14:55:18.228Z,6.23
2023-04-30T14:57:44.691Z,10.06
2023-04-30T15:00:11.140Z,7.53
2023-04-30T15:02:37.805Z,10.43
2023-04-30T15:05:04.305Z,12.15
2023-04-30T15:07:30.793Z,9.22
2023-04-30T15:09:57.545Z,8.35
2023-04-30T15:12:24.216Z,8.23
2023-04-30T15:14:50.733Z,7.53
2023-04-30T15:17:17.254Z,7.36
2023-04-30T15:19:43.722Z,7.35
2023-04-30T15:22:10.192Z,7.17
2023-04-30T15:24:36.666Z,7.30
2023-04-30T15:27:03.270Z,7.57
2023-04-30T15:29:29.883Z,7.97
2023-04-30T15:31:56.497Z,7.59
2023-04-30T15:34:23.202Z,8.05
2023-04-30T15:36:49.706Z,8.03
2023-04-30T15:39:16.188Z,7.80
2023-04-30T15:41:42.570Z,7.76
2023-04-30T15:44:09.157Z,7.92
2023-04-30T15:46:35.607Z,7.86
2023-04-30T15:49:11.180Z,8.09
2023-04-30T15:51:37.649Z,8.93
2023-04-30T15:54:04.149Z,18.05
2023-04-30T15:56:30.723Z,15.53
2023-04-30T15:58:57.258Z,10.39
2023-04-30T16:01:23.865Z,9.84
2023-04-30T16:03:50.491Z,9.51
2023-04-30T16:06:17.220Z,8.44
2023-04-30T16:08:43.876Z,8.24
2023-04-30T16:11:16.758Z,8.09
2023-04-30T16:13:43.154Z,8.19
2023-04-30T16:16:09.572Z,8.55
2023-04-30T16:18:38.166Z,7.90
2023-04-30T16:23:44.999Z,7.46
2023-04-30T16:26:11.439Z,7.91
2023-04-30T16:28:38.012Z,7.88
2023-04-30T16:31:04.417Z,8.03
2023-04-30T16:33:30.844Z,7.77
2023-04-30T16:35:57.304Z,8.49
2023-04-30T16:38:23.768Z,8.07
2023-04-30T16:40:50.188Z,7.82
2023-04-30T16:43:16.702Z,7.94
2023-04-30T16:45:43.240Z,7.87
2023-04-30T16:48:09.883Z,7.82
2023-04-30T16:50:36.273Z,7.44
2023-04-30T16:53:02.833Z,8.36
2023-04-30T16:55:29.362Z,8.35
2023-04-30T16:57:56.327Z,8.36
2023-04-30T17:00:22.773Z,7.91
2023-04-30T17:02:56.652Z,8.89
2023-04-30T17:05:23.126Z,9.89
2023-04-30T17:07:58.725Z,8.81
2023-04-30T17:10:25.248Z,8.51
2023-04-30T17:12:51.843Z,9.00
2023-04-30T17:15:18.351Z,11.02
2023-04-30T17:17:45.191Z,11.01
2023-04-30T17:20:11.722Z,11.67
2023-04-30T17:22:38.370Z,10.92
2023-04-30T17:25:04.884Z,9.37
2023-04-30T17:27:31.462Z,8.87
2023-04-30T17:29:58.100Z,8.82
2023-04-30T17:32:24.912Z,9.09
2023-04-30T17:34:51.408Z,9.24
2023-04-30T17:37:25.426Z,8.82
2023-04-30T17:39:51.893Z,8.96
2023-04-30T17:42:18.333Z,9.09
2023-04-30T17:44:44.840Z,8.97
2023-04-30T17:47:11.991Z,9.02
2023-04-30T17:49:39.277Z,9.26
2023-04-30T17:52:05.770Z,9.47
2023-04-30T17:54:32.309Z,9.17
2023-04-30T17:56:58.750Z,9.39
2023-04-30T17:59:25.197Z,10.25
2023-04-30T18:01:51.703Z,10.31
2023-04-30T18:04:18.263Z,9.19
2023-04-30T18:06:44.934Z,9.56
2023-04-30T18:09:11.446Z,10.13
2023-04-30T18:11:37.880Z,10.20
2023-04-30T18:14:04.319Z,10.55
2023-04-30T18:16:30.774Z,12.41
2023-04-30T18:18:57.275Z,10.87
2023-04-30T18:21:23.831Z,10.28
2023-04-30T18:23:50.455Z,12.00
2023-04-30T18:26:26.055Z,15.48
2023-04-30T18:28:52.563Z,11.91
2023-04-30T18:31:20.081Z,10.62
2023-04-30T18:33:49.067Z,12.75
2023-04-30T18:36:15.598Z,22.75
2023-04-30T18:38:42.149Z,14.53
2023-04-30T18:41:08.868Z,10.44
2023-04-30T18:43:35.321Z,9.29
2023-04-30T18:46:01.783Z,8.59
2023-04-30T18:48:28.296Z,8.50
2023-04-30T18:50:54.743Z,10.40
2023-04-30T18:53:23.427Z,14.87
2023-04-30T18:58:30.110Z,8.51
2023-04-30T19:00:56.600Z,8.60
2023-04-30T19:03:23.183Z,8.03
2023-04-30T19:05:49.734Z,8.40
2023-04-30T19:08:16.169Z,8.39
2023-04-30T19:10:42.699Z,13.69
2023-04-30T19:13:09.134Z,10.84
2023-04-30T19:15:35.697Z,8.75
2023-04-30T19:18:02.177Z,9.17
2023-04-30T19:20:28.639Z,9.35
2023-04-30T19:22:55.068Z,9.07
2023-04-30T19:25:21.500Z,9.29
2023-04-30T19:27:47.937Z,9.86
2023-04-30T19:30:14.376Z,9.83
2023-04-30T19:32:40.892Z,8.53
2023-04-30T19:35:07.452Z,8.57
2023-04-30T19:37:33.890Z,12.12
2023-04-30T19:40:00.388Z,12.58
2023-04-30T19:42:26.820Z,10.50
2023-04-30T19:44:53.344Z,10.45
2023-04-30T19:47:19.842Z,8.83
2023-04-30T19:49:46.586Z,7.99
2023-04-30T19:52:14.065Z,7.66
2023-04-30T19:54:40.780Z,7.19
2023-04-30T19:57:07.782Z,7.41
2023-04-30T19:59:34.228Z,7.69
2023-04-30T20:02:03.482Z,9.04
2023-04-30T20:04:29.932Z,8.83
2023-04-30T20:06:56.442Z,10.20
2023-04-30T20:09:22.873Z,11.04
2023-04-30T20:11:49.369Z,11.93
2023-04-30T20:14:15.798Z,12.26
2023-04-30T20:16:42.256Z,14.33
2023-04-30T20:19:08.758Z,16.16
2023-04-30T20:21:35.279Z,18.58
2023-04-30T20:24:01.663Z,12.26
2023-04-30T20:26:28.103Z,10.90
2023-04-30T20:28:54.537Z,9.35
2023-04-30T20:31:21.016Z,9.19
2023-04-30T20:33:47.576Z,8.88
2023-04-30T20:36:14.025Z,7.56
2023-04-30T20:38:40.420Z,6.86
2023-04-30T20:41:06.885Z,7.40
2023-04-30T20:43:33.389Z,7.95
2023-04-30T20:45:59.861Z,6.36
2023-04-30T20:48:26.363Z,5.66
2023-04-30T20:50:52.786Z,5.64
2023-04-30T20:53:19.317Z,5.57
2023-04-30T20:55:45.745Z,6.00
2023-04-30T20:58:12.299Z,5.98
2023-04-30T21:00:38.743Z,5.93
2023-04-30T21:03:05.240Z,6.42
2023-04-30T21:05:40.655Z,6.51
2023-04-30T21:08:07.092Z,6.42
2023-04-30T21:10:33.557Z,6.35
2023-04-30T21:13:00.161Z,6.45
2023-04-30T21:15:26.574Z,6.07
2023-04-30T21:17:53.163Z,5.90
2023-04-30T21:20:21.011Z,6.32
2023-04-30T21:22:47.477Z,6.49
2023-04-30T21:25:13.996Z,5.85
2023-04-30T21:27:40.507Z,6.21
2023-04-30T21:30:06.931Z,6.18
2023-04-30T21:32:33.387Z,6.33
2023-04-30T21:34:59.874Z,6.19
2023-04-30T21:37:26.419Z,6.18
2023-04-30T21:39:52.960Z,6.35
2023-04-30T21:42:19.483Z,6.21
2023-04-30T21:44:45.934Z,6.17
2023-04-30T21:47:12.471Z,5.95
2023-04-30T21:49:39.069Z,5.95
2023-04-30T21:52:06.762Z,5.48
2023-04-30T21:54:33.746Z,5.70
2023-04-30T21:57:00.972Z,6.10
2023-04-30T21:59:27.499Z,5.68
2023-04-30T22:01:54.028Z,5.51
2023-04-30T22:04:20.584Z,5.54
2023-04-30T22:06:47.429Z,5.27
2023-04-30T22:09:14.206Z,5.14
2023-04-30T22:11:42.621Z,5.06
2023-04-30T22:14:09.424Z,4.63
2023-04-30T22:16:35.866Z,4.73
2023-04-30T22:19:02.353Z,4.92
2023-04-30T22:21:31.100Z,4.70
2023-04-30T22:23:57.614Z,4.64
2023-04-30T22:26:25.394Z,4.70
2023-04-30T22:28:51.961Z,4.53
2023-04-30T22:31:18.526Z,5.16
2023-04-30T22:33:46.196Z,5.53
2023-04-30T22:36:13.405Z,5.63
2023-04-30T22:38:39.996Z,5.59
2023-04-30T22:41:06.428Z,4.93
2023-04-30T22:43:32.861Z,5.74
2023-04-30T22:45:59.280Z,6.39
2023-04-30T22:48:25.770Z,6.18
2023-04-30T22:50:52.271Z,6.25
2023-04-30T22:53:18.701Z,5.71
2023-04-30T22:55:45.228Z,5.35
2023-04-30T22:58:11.653Z,5.10
2023-04-30T23:00:38.115Z,5.57
2023-04-30T23:03:04.671Z,5.83
2023-04-30T23:05:31.217Z,5.75
2023-04-30T23:07:57.597Z,7.28
2023-04-30T23:10:24.101Z,7.41
2023-04-30T23:12:50.680Z,7.54
2023-04-30T23:15:18.316Z,8.30
2023-04-30T23:17:44.809Z,8.45
2023-04-30T23:20:11.148Z,8.04
2023-04-30T23:22:37.548Z,8.21
2023-04-30T23:25:03.936Z,7.78
2023-04-30T23:27:30.429Z,7.21
2023-04-30T23:29:59.013Z,6.83
2023-04-30T23:32:25.466Z,5.72
2023-04-30T23:34:58.232Z,5.16
2023-04-30T23:40:10.407Z,6.12
2023-04-30T23:42:36.866Z,5.88
2023-04-30T23:45:03.363Z,6.35
2023-04-30T23:47:30.119Z,5.80
2023-04-30T23:49:58.035Z,4.90
2023-04-30T23:52:24.716Z,3.96
2023-04-30T23:54:51.234Z,3.99
2023-04-30T23:57:17.682Z,4.17
2023-04-30T23:59:44.282Z,4.70
